Time;durP1;ratioP1;P1;durP2;ratioP2;P2;SDS_P1;SDS_P2;PMS_P1;PMS_P2;Temp;Humidity;BMP_temperature;BMP_pressure;BME280_temperature;BME280_humidity;BME280_pressure;Samples;Min_cycle;Max_cycle;Signal;HPM_P1;HPM_P2
2021/11/07 00:02:23;;;;;;;4.72;2.08;;;24.60;99.90;;;;;;5080525;28;20372;-74
2021/11/07 00:05:01;;;;;;;4.47;1.70;;;24.40;99.90;;;;;;5082027;28;20031;-73
2021/11/07 00:08:00;;;;;;;8.40;2.47;;;24.50;99.90;;;;;;5081640;28;20063;-76
2021/11/07 00:10:26;;;;;;;4.72;1.63;;;24.60;99.90;;;;;;5079153;28;20057;-75
2021/11/07 00:13:00;;;;;;;3.72;1.67;;;24.70;99.90;;;;;;5078530;28;20032;-72
2021/11/07 00:15:28;;;;;;;4.95;1.58;;;24.70;99.90;;;;;;5085140;28;20586;-74
2021/11/07 00:17:56;;;;;;;4.30;1.58;;;24.60;99.90;;;;;;5068693;28;20048;-75
2021/11/07 00:20:29;;;;;;;3.03;1.40;;;24.40;99.90;;;;;;5087628;28;20119;-74
2021/11/07 00:23:05;;;;;;;6.43;2.75;;;24.20;99.90;;;;;;5085529;28;20017;-76
2021/11/07 00:28:24;;;;;;;5.68;2.40;;;23.60;99.90;;;;;;5088998;28;20032;-78
2021/11/07 00:33:40;;;;;;;6.57;2.25;;;23.30;99.90;;;;;;5080520;28;20047;-76
2021/11/07 00:41:50;;;;;;;7.28;2.65;;;22.70;99.90;;;;;;5083888;28;20040;-75
2021/11/07 00:44:29;;;;;;;6.05;2.22;;;22.60;99.90;;;;;;5091904;28;20016;-75
2021/11/07 00:47:01;;;;;;;5.30;2.17;;;22.40;99.90;;;;;;5081020;28;22507;-77
2021/11/07 00:49:40;;;;;;;4.82;2.78;;;22.40;99.90;;;;;;5087559;28;20035;-76
2021/11/07 00:52:31;;;;;;;4.40;1.90;;;22.50;99.90;;;;;;5087524;28;20482;-77
2021/11/07 00:55:18;;;;;;;7.22;2.38;;;22.90;99.90;;;;;;5086114;28;20386;-76
2021/11/07 00:57:59;;;;;;;6.70;3.40;;;23.40;99.90;;;;;;5092268;28;20028;-78
2021/11/07 01:03:09;;;;;;;5.82;2.53;;;24.20;99.90;;;;;;5092281;28;20068;-76
2021/11/07 01:05:38;;;;;;;3.85;2.40;;;24.90;99.90;;;;;;5082918;28;20023;-76
2021/11/07 01:08:05;;;;;;;3.28;1.65;;;24.90;99.90;;;;;;5085725;28;20041;-74
2021/11/07 01:10:33;;;;;;;4.13;1.58;;;24.70;99.90;;;;;;5092114;28;20172;-76
2021/11/07 01:13:00;;;;;;;3.72;1.88;;;24.80;99.90;;;;;;5092195;28;20028;-76
2021/11/07 01:15:30;;;;;;;4.97;2.80;;;24.80;99.90;;;;;;5089861;28;20031;-75
2021/11/07 01:17:57;;;;;;;7.32;2.30;;;24.80;99.90;;;;;;5089232;28;20478;-76
2021/11/07 01:20:28;;;;;;;3.28;2.58;;;24.60;99.90;;;;;;5085010;28;20055;-77
2021/11/07 01:23:02;;;;;;;2.88;1.60;;;24.80;99.90;;;;;;5085062;28;20032;-74
2021/11/07 01:25:33;;;;;;;4.00;2.03;;;24.70;99.90;;;;;;5082531;28;20032;-74
2021/11/07 01:28:03;;;;;;;5.65;2.15;;;24.70;99.90;;;;;;5090287;28;20027;-74
2021/11/07 01:30:32;;;;;;;2.60;1.83;;;24.60;99.90;;;;;;5085221;28;20059;-73
2021/11/07 01:33:15;;;;;;;4.07;1.50;;;24.50;99.90;;;;;;5086982;28;20052;-74
2021/11/07 01:38:28;;;;;;;7.18;3.08;;;24.80;99.90;;;;;;5088715;28;20368;-75
2021/11/07 01:43:45;;;;;;;4.53;2.05;;;24.70;99.90;;;;;;5092436;28;20035;-74
2021/11/07 01:46:26;;;;;;;3.75;2.75;;;24.70;99.90;;;;;;5087070;28;20137;-74
2021/11/07 01:51:24;;;;;;;3.50;1.50;;;24.50;99.90;;;;;;5084839;28;20024;-75
2021/11/07 01:53:58;;;;;;;5.25;1.80;;;24.40;99.90;;;;;;5083109;28;20028;-73
2021/11/07 01:56:25;;;;;;;3.42;1.95;;;24.20;99.90;;;;;;5080068;28;20031;-75
2021/11/07 01:58:53;;;;;;;5.50;2.15;;;24.10;99.90;;;;;;5079290;28;20035;-75
2021/11/07 02:01:25;;;;;;;3.38;1.77;;;24.10;99.90;;;;;;5079459;28;20163;-74
2021/11/07 02:03:52;;;;;;;3.25;1.75;;;23.90;99.90;;;;;;5084946;28;20028;-74
2021/11/07 02:06:20;;;;;;;10.63;2.15;;;23.70;99.90;;;;;;5082499;28;20029;-73
2021/11/07 02:08:48;;;;;;;4.90;1.60;;;23.60;99.90;;;;;;5073447;28;20037;-75
2021/11/07 02:11:16;;;;;;;2.58;1.02;;;23.50;99.90;;;;;;5086269;28;20033;-73
2021/11/07 02:13:43;;;;;;;6.40;1.40;;;23.50;99.90;;;;;;5088100;28;20511;-73
2021/11/07 02:16:11;;;;;;;2.28;1.10;;;23.50;99.90;;;;;;5082225;28;20023;-74
2021/11/07 02:18:38;;;;;;;2.03;1.35;;;23.60;99.90;;;;;;5090120;28;20074;-75
2021/11/07 02:21:06;;;;;;;1.70;1.17;;;23.80;99.90;;;;;;5081657;28;20057;-73
2021/11/07 02:23:35;;;;;;;4.65;1.00;;;23.90;99.90;;;;;;5083111;28;20043;-73
2021/11/07 02:26:04;;;;;;;1.92;1.33;;;24.00;99.90;;;;;;5080734;28;20047;-75
2021/11/07 02:28:43;;;;;;;3.90;1.70;;;24.00;99.90;;;;;;5085501;28;20046;-77
2021/11/07 02:31:15;;;;;;;3.28;1.10;;;24.00;99.90;;;;;;5080514;28;20020;-75
2021/11/07 02:33:44;;;;;;;4.30;1.08;;;23.90;99.90;;;;;;5085017;28;20039;-73
2021/11/07 02:36:17;;;;;;;2.58;0.73;;;23.90;99.90;;;;;;5065052;28;20111;-75
2021/11/07 02:38:47;;;;;;;3.13;1.13;;;23.80;99.90;;;;;;5090233;28;20558;-77
2021/11/07 02:41:15;;;;;;;1.10;0.63;;;23.80;99.90;;;;;;5086119;28;20028;-80
2021/11/07 02:43:53;;;;;;;2.95;0.63;;;23.70;99.90;;;;;;5080235;28;20035;-80
2021/11/07 02:46:21;;;;;;;2.33;0.80;;;23.60;99.90;;;;;;5086529;28;20505;-79
2021/11/07 02:48:55;;;;;;;1.60;1.00;;;23.50;99.90;;;;;;5091354;28;20047;-74
2021/11/07 02:51:35;;;;;;;3.85;1.00;;;23.40;99.90;;;;;;5091348;28;20028;-73
2021/11/07 02:54:06;;;;;;;1.55;0.77;;;23.20;99.90;;;;;;5081261;28;20372;-73
2021/11/07 02:56:34;;;;;;;2.00;0.85;;;23.20;99.90;;;;;;5082541;28;20028;-73
2021/11/07 02:59:01;;;;;;;1.55;0.95;;;23.10;99.90;;;;;;5086357;28;20467;-72
2021/11/07 03:01:30;;;;;;;2.00;0.73;;;23.00;99.90;;;;;;5077560;28;20439;-73
2021/11/07 03:04:06;;;;;;;2.00;0.90;;;22.90;99.90;;;;;;5091733;28;20040;-77
2021/11/07 03:06:36;;;;;;;3.85;1.00;;;22.80;99.90;;;;;;5090977;28;20425;-78
2021/11/07 03:09:07;;;;;;;1.15;0.73;;;22.80;99.90;;;;;;5080408;28;20138;-74
2021/11/07 03:11:40;;;;;;;1.58;1.17;;;22.70;99.90;;;;;;5076048;28;20439;-73
2021/11/07 03:14:09;;;;;;;2.28;1.27;;;22.60;99.90;;;;;;5090786;28;20052;-77
2021/11/07 03:16:37;;;;;;;2.20;1.08;;;22.50;99.90;;;;;;5086387;28;20085;-73
2021/11/07 03:19:04;;;;;;;2.83;1.10;;;22.40;99.90;;;;;;5089196;28;20027;-75
2021/11/07 03:21:31;;;;;;;1.38;0.90;;;22.40;99.90;;;;;;5084263;28;20028;-74
2021/11/07 03:23:59;;;;;;;1.05;0.70;;;22.30;99.90;;;;;;5089289;28;20081;-71
2021/11/07 03:26:28;;;;;;;2.15;1.73;;;22.10;99.90;;;;;;5080217;28;20107;-72
2021/11/07 03:29:01;;;;;;;3.80;0.93;;;22.20;99.90;;;;;;5090912;28;20047;-77
2021/11/07 03:34:26;;;;;;;3.67;1.25;;;22.10;99.90;;;;;;5073635;28;20535;-74
2021/11/07 03:36:57;;;;;;;2.03;1.15;;;21.80;99.90;;;;;;5082803;28;20027;-75
2021/11/07 03:39:27;;;;;;;3.83;1.23;;;21.50;99.90;;;;;;5078031;28;20371;-75
2021/11/07 03:41:55;;;;;;;4.82;2.58;;;21.20;99.90;;;;;;5073399;28;20024;-73
2021/11/07 03:44:23;;;;;;;4.25;1.90;;;20.90;99.90;;;;;;5081402;28;20028;-74
2021/11/07 03:46:53;;;;;;;2.70;1.80;;;20.70;99.90;;;;;;5080646;28;20020;-74
2021/11/07 03:49:22;;;;;;;3.67;1.40;;;20.70;99.90;;;;;;5079587;28;20073;-76
2021/11/07 03:51:49;;;;;;;2.97;1.15;;;20.80;99.90;;;;;;5088441;28;20437;-74
2021/11/07 03:54:19;;;;;;;2.90;1.35;;;20.80;99.90;;;;;;5072447;28;20020;-76
2021/11/07 03:56:56;;;;;;;5.43;1.33;;;20.90;99.90;;;;;;5083179;28;20110;-76
2021/11/07 03:59:24;;;;;;;3.78;1.30;;;20.90;99.90;;;;;;5087407;28;20088;-77
2021/11/07 04:01:52;;;;;;;4.63;2.05;;;21.00;99.90;;;;;;5076505;28;20036;-75
2021/11/07 04:04:20;;;;;;;5.13;1.70;;;21.00;99.90;;;;;;5092358;28;20059;-77
2021/11/07 04:06:47;;;;;;;4.35;1.48;;;21.00;99.90;;;;;;5086293;28;20028;-76
2021/11/07 04:09:15;;;;;;;3.35;1.35;;;21.10;99.90;;;;;;5092640;28;20536;-76
2021/11/07 04:11:43;;;;;;;2.70;1.30;;;21.10;99.90;;;;;;5078497;28;20367;-78
2021/11/07 04:14:12;;;;;;;4.47;1.35;;;21.20;99.90;;;;;;5091297;28;20036;-78
2021/11/07 04:16:40;;;;;;;2.63;1.17;;;21.20;99.90;;;;;;5088749;28;20028;-76
2021/11/07 04:19:09;;;;;;;3.78;1.20;;;21.30;99.90;;;;;;5085709;28;20028;-76
2021/11/07 04:21:38;;;;;;;2.10;1.83;;;21.40;99.90;;;;;;5077181;28;20032;-75
2021/11/07 04:24:06;;;;;;;2.08;0.80;;;21.60;99.90;;;;;;5082332;28;20020;-78
2021/11/07 04:26:33;;;;;;;1.75;0.93;;;21.60;99.90;;;;;;5088883;28;20024;-77
2021/11/07 04:29:00;;;;;;;2.75;1.17;;;21.60;99.90;;;;;;5091356;28;20372;-76
2021/11/07 04:31:28;;;;;;;1.70;0.80;;;21.70;99.90;;;;;;5088164;28;20181;-79
2021/11/07 04:33:55;;;;;;;3.22;1.00;;;21.70;99.90;;;;;;5089393;28;20051;-78
2021/11/07 04:36:23;;;;;;;2.10;1.23;;;21.50;99.90;;;;;;5085902;28;20038;-77
2021/11/07 04:38:50;;;;;;;3.13;1.20;;;21.40;99.90;;;;;;5070167;28;20028;-76
2021/11/07 04:41:18;;;;;;;3.17;1.30;;;21.30;99.90;;;;;;5083922;28;20602;-76
2021/11/07 04:43:47;;;;;;;2.95;0.90;;;21.30;99.90;;;;;;5091946;28;20498;-76
2021/11/07 04:46:17;;;;;;;4.97;0.90;;;21.20;99.90;;;;;;5085661;28;20040;-77
2021/11/07 04:48:47;;;;;;;2.92;1.10;;;21.10;99.90;;;;;;5092133;28;20571;-78
2021/11/07 04:51:15;;;;;;;2.15;0.82;;;21.10;99.90;;;;;;5070371;28;20060;-76
2021/11/07 04:53:45;;;;;;;3.60;0.60;;;21.10;99.90;;;;;;5084315;28;20024;-79
2021/11/07 04:56:13;;;;;;;2.75;0.82;;;21.00;99.90;;;;;;5081698;28;20111;-76
2021/11/07 04:58:41;;;;;;;0.90;0.60;;;21.00;99.90;;;;;;5072162;28;20021;-74
2021/11/07 05:01:08;;;;;;;1.92;0.70;;;21.00;99.90;;;;;;5089049;28;20120;-75
2021/11/07 05:03:36;;;;;;;1.67;0.85;;;21.10;99.90;;;;;;5094962;28;20097;-76
2021/11/07 05:06:03;;;;;;;1.55;0.93;;;21.20;99.90;;;;;;5068308;28;20090;-75
2021/11/07 05:08:31;;;;;;;0.70;0.40;;;21.20;99.90;;;;;;5082682;28;20039;-74
2021/11/07 05:10:59;;;;;;;1.25;0.60;;;21.30;99.90;;;;;;5081654;28;20024;-76
2021/11/07 05:13:26;;;;;;;1.33;0.70;;;21.40;99.90;;;;;;5089576;28;20040;-77
2021/11/07 05:15:54;;;;;;;1.52;0.68;;;21.40;99.90;;;;;;5083459;28;20051;-75
2021/11/07 05:18:23;;;;;;;1.20;0.50;;;21.30;99.90;;;;;;5072203;28;20044;-76
2021/11/07 05:20:50;;;;;;;0.75;0.60;;;21.30;99.90;;;;;;5070843;28;20081;-79
2021/11/07 05:23:18;;;;;;;1.80;0.47;;;21.30;99.90;;;;;;5078270;28;20024;-76
2021/11/07 05:25:46;;;;;;;3.40;0.68;;;21.30;99.90;;;;;;5073154;28;20020;-78
2021/11/07 05:28:14;;;;;;;1.40;0.88;;;21.30;99.90;;;;;;5055186;28;20029;-74
2021/11/07 05:30:42;;;;;;;1.20;0.70;;;21.30;99.90;;;;;;5069731;28;20020;-72
2021/11/07 05:33:10;;;;;;;1.05;0.50;;;21.20;99.90;;;;;;5049648;28;20576;-80
2021/11/07 05:35:38;;;;;;;0.93;0.52;;;21.10;99.90;;;;;;5085401;28;20530;-76
2021/11/07 05:38:05;;;;;;;1.27;0.80;;;21.20;99.90;;;;;;5084271;28;20115;-81
2021/11/07 05:40:33;;;;;;;5.78;0.90;;;21.30;99.90;;;;;;5084650;28;20078;-78
2021/11/07 05:43:00;;;;;;;1.48;0.80;;;21.30;99.90;;;;;;5093286;28;20032;-78
2021/11/07 05:45:28;;;;;;;1.70;0.80;;;21.40;99.90;;;;;;5055551;28;20024;-76
2021/11/07 05:47:56;;;;;;;1.40;1.10;;;21.50;99.90;;;;;;5069102;28;20802;-73
2021/11/07 05:50:24;;;;;;;0.70;0.57;;;21.50;99.90;;;;;;5069790;28;20046;-71
2021/11/07 05:52:53;;;;;;;2.17;0.57;;;21.60;99.90;;;;;;5077613;28;20038;-71
2021/11/07 05:55:21;;;;;;;1.15;0.77;;;21.40;99.90;;;;;;5069268;28;20070;-75
2021/11/07 05:57:48;;;;;;;2.53;0.95;;;21.40;99.90;;;;;;5066738;28;20032;-71
2021/11/07 06:00:17;;;;;;;1.58;0.63;;;21.30;99.90;;;;;;5069794;28;20028;-72
2021/11/07 06:02:46;;;;;;;1.38;0.63;;;21.30;99.90;;;;;;5084167;28;20077;-78
2021/11/07 06:05:15;;;;;;;1.92;1.00;;;21.30;99.90;;;;;;5090498;28;20023;-76
2021/11/07 06:07:42;;;;;;;1.65;0.65;;;21.30;99.90;;;;;;5082955;28;20036;-77
2021/11/07 06:10:10;;;;;;;0.70;0.60;;;21.30;99.90;;;;;;5069044;28;20016;-80
2021/11/07 06:12:37;;;;;;;1.13;0.77;;;21.30;99.90;;;;;;5070245;28;20360;-81
2021/11/07 06:15:06;;;;;;;2.60;1.02;;;21.40;99.90;;;;;;5068934;28;20035;-74
2021/11/07 06:17:33;;;;;;;0.52;0.40;;;21.50;99.90;;;;;;5077238;28;20024;-77
2021/11/07 06:20:01;;;;;;;0.65;0.50;;;21.40;99.90;;;;;;5075808;28;20218;-72
2021/11/07 06:22:28;;;;;;;1.80;0.70;;;21.40;99.90;;;;;;5091152;28;20021;-72
2021/11/07 06:24:56;;;;;;;1.52;0.60;;;21.40;99.90;;;;;;5089683;28;20024;-72
2021/11/07 06:27:27;;;;;;;1.70;0.90;;;21.40;99.90;;;;;;5094038;28;20046;-70
2021/11/07 06:29:55;;;;;;;2.47;0.82;;;21.40;99.90;;;;;;5074595;28;20024;-74
2021/11/07 06:32:22;;;;;;;0.93;0.60;;;21.40;99.90;;;;;;5070765;28;20062;-73
2021/11/07 06:34:49;;;;;;;1.75;0.93;;;21.30;99.90;;;;;;5071809;28;20125;-73
2021/11/07 06:37:17;;;;;;;1.10;0.82;;;21.20;99.90;;;;;;5069454;28;20036;-72
2021/11/07 06:39:44;;;;;;;3.53;0.93;;;21.10;99.90;;;;;;5085664;28;20101;-77
2021/11/07 06:42:12;;;;;;;1.95;0.93;;;21.00;99.90;;;;;;5090028;28;20031;-72
2021/11/07 06:44:40;;;;;;;1.45;0.90;;;20.80;99.90;;;;;;5073369;28;20028;-73
2021/11/07 06:47:12;;;;;;;2.08;1.52;;;20.80;99.90;;;;;;5066544;28;20075;-73
2021/11/07 06:49:39;;;;;;;1.38;0.80;;;20.80;99.90;;;;;;5071818;28;20032;-73
2021/11/07 06:52:07;;;;;;;1.33;0.70;;;20.90;99.90;;;;;;5079597;28;20039;-75
2021/11/07 06:54:35;;;;;;;1.67;0.75;;;20.90;99.90;;;;;;5077278;28;20494;-74
2021/11/07 06:57:03;;;;;;;1.30;0.73;;;20.90;99.90;;;;;;5075758;28;20052;-73
2021/11/07 06:59:30;;;;;;;1.02;0.60;;;20.90;99.90;;;;;;5069109;28;20040;-75
2021/11/07 07:01:58;;;;;;;2.47;0.60;;;21.00;99.90;;;;;;5081334;28;20065;-74
2021/11/07 07:04:25;;;;;;;1.42;0.75;;;21.00;99.90;;;;;;5092061;28;20028;-74
2021/11/07 07:06:53;;;;;;;1.48;0.73;;;21.10;99.90;;;;;;5071885;28;20452;-72
2021/11/07 07:09:25;;;;;;;1.65;0.70;;;21.10;99.90;;;;;;5092720;28;20089;-75
2021/11/07 07:12:06;;;;;;;3.65;1.08;;;21.10;99.90;;;;;;5090488;28;20478;-74
2021/11/07 07:14:49;;;;;;;2.60;1.10;;;21.00;99.90;;;;;;5091496;28;20488;-72
2021/11/07 07:17:24;;;;;;;;;;;;;;;;;;;;;
2021/11/07 07:20:02;;;;;;;1.38;1.02;;;20.90;99.90;;;;;;5089346;28;20370;-74
2021/11/07 07:25:40;;;;;;;3.45;1.05;;;20.90;99.90;;;;;;5083158;28;19988;-74
2021/11/07 07:33:52;;;;;;;5.32;1.42;;;20.80;99.90;;;;;;5081274;28;20074;-76
2021/11/07 07:36:21;;;;;;;1.75;1.10;;;20.90;99.90;;;;;;5079323;28;20099;-74
2021/11/07 07:38:48;;;;;;;3.83;2.03;;;20.90;99.90;;;;;;5078602;28;20039;-73
2021/11/07 07:41:16;;;;;;;1.98;1.50;;;20.90;99.90;;;;;;5063266;28;20024;-73
2021/11/07 07:43:43;;;;;;;3.78;1.00;;;21.00;99.90;;;;;;5083086;28;20121;-73
2021/11/07 07:46:14;;;;;;;1.45;1.13;;;21.00;99.90;;;;;;5083279;28;20035;-71
2021/11/07 07:48:44;;;;;;;1.73;1.15;;;21.00;99.90;;;;;;5078673;28;20528;-72
2021/11/07 07:51:15;;;;;;;3.55;0.80;;;21.00;99.90;;;;;;5074789;28;20418;-76
2021/11/07 07:53:44;;;;;;;2.47;1.23;;;20.90;99.90;;;;;;5077289;28;20036;-76
2021/11/07 07:56:13;;;;;;;3.28;1.80;;;21.00;99.90;;;;;;5077378;28;20032;-71
2021/11/07 07:58:41;;;;;;;1.98;1.30;;;21.00;99.90;;;;;;5078493;28;20035;-72
2021/11/07 08:01:09;;;;;;;3.63;1.25;;;21.00;99.90;;;;;;5060174;28;20040;-75
2021/11/07 08:03:38;;;;;;;2.40;1.00;;;21.00;99.90;;;;;;5078169;28;20031;-82
2021/11/07 08:06:05;;;;;;;2.72;1.17;;;21.00;99.90;;;;;;5081705;28;20024;-76
2021/11/07 08:08:33;;;;;;;3.50;1.35;;;20.90;99.90;;;;;;5080927;28;20028;-70
2021/11/07 08:11:01;;;;;;;3.05;1.20;;;20.90;99.90;;;;;;5078954;28;20016;-73
2021/11/07 08:13:29;;;;;;;1.98;1.75;;;20.90;99.90;;;;;;5082947;28;20035;-73
2021/11/07 08:15:57;;;;;;;3.70;1.63;;;20.80;99.90;;;;;;5077440;28;20062;-73
2021/11/07 08:18:24;;;;;;;1.88;1.10;;;20.80;99.90;;;;;;5077500;28;20025;-74
2021/11/07 08:20:51;;;;;;;2.28;1.67;;;20.70;99.90;;;;;;5062612;28;20035;-74
2021/11/07 08:23:23;;;;;;;1.85;1.30;;;20.70;99.90;;;;;;5080462;28;20030;-74
2021/11/07 08:25:50;;;;;;;2.08;1.70;;;20.60;99.90;;;;;;5080725;28;20104;-77
2021/11/07 08:28:21;;;;;;;2.28;1.30;;;20.60;99.90;;;;;;5077486;28;20056;-77
2021/11/07 08:30:54;;;;;;;2.97;1.60;;;20.60;99.90;;;;;;5068765;28;20048;-75
2021/11/07 08:33:21;;;;;;;4.15;1.70;;;20.60;99.90;;;;;;5081324;28;20055;-73
2021/11/07 08:35:50;;;;;;;4.05;2.08;;;20.50;99.90;;;;;;5083145;28;20136;-73
2021/11/07 08:38:21;;;;;;;5.63;1.75;;;20.40;99.90;;;;;;5079474;28;20550;-73
2021/11/07 08:40:52;;;;;;;3.58;2.65;;;20.40;99.90;;;;;;5084625;28;20028;-74
2021/11/07 09:03:12;;;;;;;3.30;1.77;;;19.90;99.90;;;;;;5088720;28;20043;-76
2021/11/07 09:05:31;;;;;;;2.75;1.42;;;19.80;99.90;;;;;;5080187;28;20040;-76
2021/11/07 09:10:36;;;;;;;1.45;1.20;;;19.80;99.90;;;;;;5080157;28;20031;-73
2021/11/07 09:13:06;;;;;;;2.53;1.38;;;19.80;99.90;;;;;;5088305;28;20024;-75
2021/11/07 09:15:36;;;;;;;4.00;1.80;;;19.70;99.90;;;;;;5081514;28;20497;-74
2021/11/07 09:18:04;;;;;;;5.70;3.17;;;19.70;99.90;;;;;;5086217;28;20024;-73
2021/11/07 09:26:23;;;;;;;2.17;1.55;;;19.50;99.90;;;;;;5053466;28;20068;-73
2021/11/07 09:28:57;;;;;;;1.75;1.25;;;19.50;99.90;;;;;;5081312;28;20125;-73
2021/11/07 09:31:45;;;;;;;2.42;0.70;;;19.40;99.90;;;;;;5083092;28;20028;-73
2021/11/07 09:34:41;;;;;;;1.33;1.00;;;19.40;99.90;;;;;;5083392;28;20121;-74
2021/11/07 09:37:21;;;;;;;2.03;0.77;;;19.30;99.90;;;;;;5083347;28;20110;-74
2021/11/07 09:39:53;;;;;;;1.00;0.70;;;19.30;99.90;;;;;;5081567;28;20064;-74
2021/11/07 09:44:53;;;;;;;1.02;0.50;;;19.10;99.90;;;;;;5083706;28;20024;-74
2021/11/07 09:47:24;;;;;;;2.25;0.90;;;19.10;99.90;;;;;;5079534;28;20123;-73
2021/11/07 09:49:52;;;;;;;1.90;0.80;;;19.10;99.90;;;;;;5081841;28;20115;-74
2021/11/07 09:52:29;;;;;;;2.50;0.70;;;19.10;99.90;;;;;;5083231;28;20104;-75
2021/11/07 09:55:02;;;;;;;1.77;0.70;;;19.00;99.90;;;;;;5079855;28;20020;-75
2021/11/07 09:57:30;;;;;;;0.88;0.75;;;18.90;99.90;;;;;;5080173;28;20078;-74
2021/11/07 10:00:01;;;;;;;1.08;0.63;;;18.90;99.90;;;;;;5060762;28;20387;-74
2021/11/07 10:02:32;;;;;;;1.55;0.90;;;18.90;99.90;;;;;;5081167;28;20497;-74
2021/11/07 10:05:01;;;;;;;2.35;0.98;;;18.80;99.90;;;;;;5084081;28;20107;-75
2021/11/07 10:07:38;;;;;;;1.45;0.95;;;18.80;99.90;;;;;;5080039;28;20024;-74
2021/11/07 10:10:23;;;;;;;1.13;0.70;;;18.80;99.90;;;;;;5077953;28;20036;-75
2021/11/07 10:12:56;;;;;;;2.77;0.87;;;18.80;99.90;;;;;;5080414;28;20065;-74
2021/11/07 10:15:41;;;;;;;0.88;0.60;;;18.70;99.90;;;;;;5075296;28;20426;-75
2021/11/07 10:18:13;;;;;;;1.60;0.55;;;18.70;99.90;;;;;;5083527;28;20031;-73
2021/11/07 10:20:47;;;;;;;0.90;0.45;;;18.70;99.90;;;;;;5076196;28;20498;-75
2021/11/07 10:23:41;;;;;;;1.00;0.80;;;18.70;99.90;;;;;;5082271;28;20069;-74
2021/11/07 10:26:19;;;;;;;1.40;0.70;;;18.70;99.90;;;;;;5082323;28;20039;-73
2021/11/07 10:29:00;;;;;;;2.58;0.90;;;18.70;99.90;;;;;;5082564;28;20028;-74
2021/11/07 10:31:40;;;;;;;1.98;1.00;;;18.70;99.90;;;;;;5085251;28;20021;-75
2021/11/07 10:37:54;;;;;;;0.70;0.60;;;18.70;99.90;;;;;;5083776;28;20035;-74
2021/11/07 10:40:25;;;;;;;0.93;0.70;;;18.70;99.90;;;;;;5078800;28;20153;-74
2021/11/07 10:45:44;;;;;;;0.65;0.47;;;18.80;99.90;;;;;;5082547;28;20020;-73
2021/11/07 10:53:27;;;;;;;1.08;0.60;;;18.70;99.90;;;;;;5083301;28;20160;-73
2021/11/07 10:56:03;;;;;;;1.38;0.90;;;18.70;99.90;;;;;;5062552;28;20024;-74
2021/11/07 10:58:34;;;;;;;1.17;0.90;;;18.80;99.90;;;;;;5078688;28;21682;-74
2021/11/07 11:01:06;;;;;;;3.08;1.10;;;18.80;99.90;;;;;;5080649;28;20557;-74
2021/11/07 11:03:40;;;;;;;2.00;0.90;;;18.70;99.90;;;;;;5079195;28;20028;-75
2021/11/07 11:06:14;;;;;;;2.08;1.08;;;18.70;99.90;;;;;;5079229;28;20374;-73
2021/11/07 11:09:04;;;;;;;1.33;0.70;;;18.70;99.90;;;;;;5079719;28;20032;-73
2021/11/07 11:11:38;;;;;;;4.65;0.77;;;18.70;99.90;;;;;;5086741;28;20051;-75
2021/11/07 11:19:55;;;;;;;3.25;1.25;;;18.80;99.90;;;;;;5074469;28;20152;-74
2021/11/07 11:22:39;;;;;;;2.22;1.20;;;18.80;99.90;;;;;;5080368;28;20121;-74
2021/11/07 11:25:31;;;;;;;1.13;0.75;;;18.70;99.90;;;;;;5080184;28;20467;-75
2021/11/07 11:28:49;;;;;;;2.35;1.02;;;18.70;99.90;;;;;;5057873;28;20125;-75
2021/11/07 11:33:27;;;;;;;1.33;1.10;;;18.70;99.90;;;;;;5084952;28;20119;-75
2021/11/07 11:36:14;;;;;;;2.03;1.10;;;18.70;99.90;;;;;;5083818;28;20055;-75
2021/11/07 11:38:53;;;;;;;1.67;1.00;;;18.70;99.90;;;;;;5086745;28;20036;-74
2021/11/07 11:41:28;;;;;;;2.42;1.08;;;18.70;99.90;;;;;;5062568;28;20059;-75
2021/11/07 11:43:56;;;;;;;3.40;1.42;;;18.70;99.90;;;;;;5087775;28;20421;-76
2021/11/07 11:46:45;;;;;;;3.63;1.75;;;18.70;99.90;;;;;;5080481;28;20111;-73
2021/11/07 11:49:43;;;;;;;1.63;0.90;;;18.80;99.90;;;;;;5082536;28;20079;-73
2021/11/07 11:57:53;;;;;;;2.22;1.20;;;18.90;99.90;;;;;;5082525;28;20028;-73
2021/11/07 12:03:10;;;;;;;3.78;2.08;;;19.00;99.90;;;;;;5091905;28;20032;-74
2021/11/07 12:05:50;;;;;;;;;;;;;;;;;;;;;
2021/11/07 12:10:51;;;;;;;3.55;1.98;;;18.90;99.90;;;;;;5085682;28;20036;-73
2021/11/07 12:13:58;;;;;;;3.00;2.08;;;18.80;99.90;;;;;;5087368;28;20039;-74
2021/11/07 12:16:47;;;;;;;2.67;1.67;;;18.80;99.90;;;;;;5087361;28;20060;-74
2021/11/07 12:19:16;;;;;;;4.85;1.92;;;18.80;99.90;;;;;;5086549;28;21564;-71
2021/11/07 12:21:54;;;;;;;2.58;1.40;;;18.80;99.90;;;;;;5089510;28;20036;-70
2021/11/07 12:24:28;;;;;;;4.05;1.70;;;18.80;99.90;;;;;;5085242;28;20025;-73
2021/11/07 12:27:24;;;;;;;7.70;2.40;;;18.80;99.90;;;;;;5094297;28;20020;-73
2021/11/07 12:29:57;;;;;;;1.65;1.55;;;18.80;99.90;;;;;;5074791;28;20088;-74
2021/11/07 12:32:30;;;;;;;2.00;1.30;;;18.80;99.90;;;;;;5091364;28;20060;-73
2021/11/07 12:40:34;;;;;;;2.28;1.52;;;18.70;99.90;;;;;;5082234;28;20118;-72
2021/11/07 12:43:08;;;;;;;5.68;2.22;;;18.60;99.90;;;;;;5078067;28;20021;-71
2021/11/07 12:45:40;;;;;;;6.28;1.98;;;18.60;99.90;;;;;;5073122;28;20028;-72
2021/11/07 12:48:10;;;;;;;3.08;1.92;;;18.50;99.90;;;;;;5094239;28;20027;-73
2021/11/07 12:50:56;;;;;;;3.67;1.88;;;18.60;99.90;;;;;;5077847;28;20107;-72
2021/11/07 12:53:47;;;;;;;3.83;1.58;;;18.50;99.90;;;;;;5087119;28;20471;-73
2021/11/07 12:56:26;;;;;;;3.40;1.70;;;18.50;99.90;;;;;;5095148;28;20437;-73
2021/11/07 12:58:53;;;;;;;3.55;2.15;;;18.50;99.90;;;;;;5095653;28;20016;-73
2021/11/07 13:01:21;;;;;;;6.85;2.10;;;18.60;99.90;;;;;;5087243;28;20774;-73
2021/11/07 13:03:52;;;;;;;2.88;1.83;;;18.50;99.90;;;;;;5095397;28;20083;-73
2021/11/07 13:06:20;;;;;;;3.92;1.90;;;18.60;99.90;;;;;;5088199;28;20383;-73
2021/11/07 13:08:54;;;;;;;3.88;1.88;;;18.60;99.90;;;;;;5082358;28;20114;-72
2021/11/07 13:11:27;;;;;;;2.47;1.60;;;18.60;99.90;;;;;;5092910;28;20066;-73
2021/11/07 13:14:06;;;;;;;4.80;2.10;;;18.60;99.90;;;;;;5076675;28;20036;-72
2021/11/07 13:27:19;;;;;;;3.35;2.30;;;18.50;99.90;;;;;;5092453;28;20441;-73
2021/11/07 13:30:02;;;;;;;3.13;1.85;;;18.50;99.90;;;;;;5075017;28;20032;-74
2021/11/07 13:32:32;;;;;;;3.17;1.92;;;18.50;99.90;;;;;;5075111;28;20410;-74
2021/11/07 13:35:03;;;;;;;5.25;1.85;;;18.50;99.90;;;;;;5074922;28;20044;-72
2021/11/07 13:37:46;;;;;;;4.78;2.45;;;18.50;99.90;;;;;;5082117;28;20510;-72
2021/11/07 13:40:29;;;;;;;2.88;1.92;;;18.60;99.90;;;;;;5082619;28;20042;-72
2021/11/07 13:43:18;;;;;;;6.00;2.40;;;18.60;99.90;;;;;;5074931;28;20035;-72
2021/11/07 13:45:50;;;;;;;4.30;2.00;;;18.60;99.90;;;;;;5078126;28;20029;-72
2021/11/07 13:48:22;;;;;;;7.55;2.55;;;18.60;99.90;;;;;;5074866;28;20025;-72
2021/11/07 13:50:52;;;;;;;3.60;2.38;;;18.50;99.90;;;;;;5074792;28;20063;-72
2021/11/07 13:53:32;;;;;;;5.68;2.92;;;18.50;99.90;;;;;;5074631;28;20033;-72
2021/11/07 13:56:03;;;;;;;4.57;3.03;;;18.50;99.90;;;;;;5075287;28;20545;-72
2021/11/07 13:58:33;;;;;;;6.28;3.88;;;18.50;99.90;;;;;;5074898;28;20074;-72
2021/11/07 14:01:10;;;;;;;4.95;3.10;;;18.50;99.90;;;;;;5076764;28;20131;-72
2021/11/07 14:03:41;;;;;;;4.63;3.13;;;18.50;99.90;;;;;;5076198;28;20028;-72
2021/11/07 14:09:02;;;;;;;5.15;3.38;;;18.50;99.90;;;;;;5074103;28;20040;-74
2021/11/07 14:11:33;;;;;;;6.97;4.80;;;18.50;99.90;;;;;;5089285;28;20020;-73
2021/11/07 14:14:12;;;;;;;6.10;4.30;;;18.50;99.90;;;;;;5092407;28;20035;-72
2021/11/07 14:16:47;;;;;;;7.53;4.88;;;18.50;99.90;;;;;;5072844;28;20382;-72
2021/11/07 14:19:14;;;;;;;;;;;18.50;99.90;;;;;;5079485;28;20035;-72
2021/11/07 14:21:51;;;;;;;5.85;4.63;;;18.50;99.90;;;;;;5080589;28;19957;-72
2021/11/07 14:24:29;;;;;;;10.65;6.20;;;18.60;99.90;;;;;;5073464;28;20025;-72
2021/11/07 14:27:07;;;;;;;8.52;6.47;;;18.50;99.90;;;;;;5087186;28;20110;-73
2021/11/07 14:29:38;;;;;;;8.20;5.63;;;18.50;99.90;;;;;;5092285;28;20379;-72
2021/11/07 14:32:19;;;;;;;7.13;4.85;;;18.50;99.90;;;;;;5063298;28;20028;-74
2021/11/07 14:35:08;;;;;;;9.55;4.90;;;18.40;99.90;;;;;;5093653;28;20071;-73
2021/11/07 14:40:37;;;;;;;4.15;3.20;;;18.30;99.90;;;;;;5073871;28;20017;-73
2021/11/07 14:46:24;;;;;;;4.28;2.83;;;18.20;99.90;;;;;;5073100;28;19912;-72
2021/11/07 14:54:50;;;;;;;2.83;2.50;;;18.20;99.90;;;;;;5030884;28;20029;-73
2021/11/07 14:57:37;;;;;;;6.35;3.47;;;18.10;99.90;;;;;;5086653;28;20089;-73
2021/11/07 15:00:17;;;;;;;4.53;3.85;;;18.10;99.90;;;;;;5093734;28;20035;-72
2021/11/07 15:02:50;;;;;;;6.50;3.78;;;18.10;99.90;;;;;;5091103;28;20035;-72
2021/11/07 15:05:32;;;;;;;5.20;3.53;;;18.10;99.90;;;;;;5084595;28;20472;-72
2021/11/07 15:08:38;;;;;;;5.32;4.68;;;18.10;99.90;;;;;;5072941;28;20021;-72
2021/11/07 15:11:27;;;;;;;5.85;3.40;;;18.10;99.90;;;;;;5074980;28;20054;-73
2021/11/07 15:14:00;;;;;;;5.88;4.68;;;18.10;99.90;;;;;;5072809;28;20477;-73
2021/11/07 15:16:51;;;;;;;8.02;5.03;;;18.10;99.90;;;;;;5079012;28;20032;-73
2021/11/07 15:19:37;;;;;;;5.75;4.40;;;18.10;99.90;;;;;;5092526;28;20086;-72
2021/11/07 15:22:18;;;;;;;6.43;4.47;;;18.10;99.90;;;;;;5086851;28;20024;-72
2021/11/07 15:24:47;;;;;;;5.85;4.78;;;18.20;99.90;;;;;;5090971;28;20024;-73